Terminal Aerodrome Forecast
Issued by NWS

Home | Current Version | Previous Version | Graphics & Text | Print | Product List | Glossary On
Versions: 1 2 3 4 5 6 7 8 9 10 11 12 13 14 15 16 17 18
794
FTUS43 KABR 222246 AAC
TAFMBG
TAF AMD
KMBG 222246Z 2223/2318 19008KT P6SM SKC
      TEMPO 2223/2301 4SM -TSRA BKN060CB
     FM230100 05008KT P6SM VCTS BKN060CB
     FM230600 34007KT P6SM BKN090
     FM230900 30007KT P6SM BKN140=

USA.gov is the U.S. government's official web portal to all federal, state and local government web resources and services.